sensor_id;sensor_type;location;lat;lon;timestamp;pressure;altitude;pressure_sealevel;temperature;humidity
31585;BME280;18191;51.288;12.390;2023-12-20T00:04:48;49243.56;;;-144.47;100.00
31585;BME280;18191;51.288;12.390;2023-12-20T00:09:38;49195.84;;;-144.47;100.00
31585;BME280;18191;51.288;12.390;2023-12-20T00:14:29;49227.66;;;-144.47;100.00
31585;BME280;18191;51.288;12.390;2023-12-20T00:19:19;49239.59;;;-144.47;100.00
31585;BME280;18191;51.288;12.390;2023-12-20T00:24:10;49231.63;;;-144.47;100.00
31585;BME280;18191;51.288;12.390;2023-12-20T00:29:00;49227.66;;;-144.47;100.00
31585;BME280;18191;51.288;12.390;2023-12-20T00:33:50;49191.84;;;-144.47;100.00
31585;BME280;18191;51.288;12.390;2023-12-20T00:38:40;49219.72;;;-144.47;100.00
31585;BME280;18191;51.288;12.390;2023-12-20T00:43:31;49235.63;;;-144.47;100.00
31585;BME280;18191;51.288;12.390;2023-12-20T00:48:21;49199.81;;;-144.47;100.00
31585;BME280;18191;51.288;12.390;2023-12-20T00:53:11;49229.66;;;-144.47;100.00
31585;BME280;18191;51.288;12.390;2023-12-20T00:58:01;49195.84;;;-144.47;100.00
31585;BME280;18191;51.288;12.390;2023-12-20T01:02:52;49223.69;;;-144.47;100.00
31585;BME280;18191;51.288;12.390;2023-12-20T01:07:42;49211.75;;;-144.47;100.00
31585;BME280;18191;51.288;12.390;2023-12-20T01:12:32;49173.94;;;-144.47;100.00
31585;BME280;18191;51.288;12.390;2023-12-20T01:17:22;49231.63;;;-144.47;100.00
31585;BME280;18191;51.288;12.390;2023-12-20T01:22:13;49187.88;;;-144.47;100.00
31585;BME280;18191;51.288;12.390;2023-12-20T01:27:03;49207.78;;;-144.47;100.00
31585;BME280;18191;51.288;12.390;2023-12-20T01:31:53;49251.53;;;-144.47;100.00
31585;BME280;18191;51.288;12.390;2023-12-20T01:36:44;49203.78;;;-144.47;100.00
31585;BME280;18191;51.288;12.390;2023-12-20T01:41:34;49209.75;;;-144.47;100.00
31585;BME280;18191;51.288;12.390;2023-12-20T01:46:25;49255.50;;;-144.47;100.00
31585;BME280;18191;51.288;12.390;2023-12-20T01:51:16;49219.72;;;-144.47;100.00
31585;BME280;18191;51.288;12.390;2023-12-20T01:56:06;49235.63;;;-144.47;100.00
31585;BME280;18191;51.288;12.390;2023-12-20T02:00:57;49231.63;;;-144.47;100.00
31585;BME280;18191;51.288;12.390;2023-12-20T02:05:47;49223.69;;;-144.47;100.00
31585;BME280;18191;51.288;12.390;2023-12-20T02:10:38;49229.66;;;-144.47;100.00
31585;BME280;18191;51.288;12.390;2023-12-20T02:15:28;49219.72;;;-144.47;100.00
31585;BME280;18191;51.288;12.390;2023-12-20T02:20:18;49215.72;;;-144.47;100.00
31585;BME280;18191;51.288;12.390;2023-12-20T02:25:09;49227.66;;;-144.47;100.00
31585;BME280;18191;51.288;12.390;2023-12-20T02:29:59;49215.72;;;-144.47;100.00
31585;BME280;18191;51.288;12.390;2023-12-20T02:34:49;49215.72;;;-144.47;100.00
31585;BME280;18191;51.288;12.390;2023-12-20T02:39:39;49209.75;;;-144.47;100.00
31585;BME280;18191;51.288;12.390;2023-12-20T02:44:30;49179.91;;;-144.47;100.00
31585;BME280;18191;51.288;12.390;2023-12-20T02:49:20;49211.75;;;-144.47;100.00
31585;BME280;18191;51.288;12.390;2023-12-20T02:54:10;49195.84;;;-144.47;100.00
31585;BME280;18191;51.288;12.390;2023-12-20T02:59:01;49197.81;;;-144.47;100.00
31585;BME280;18191;51.288;12.390;2023-12-20T03:03:51;49235.63;;;-144.47;100.00
31585;BME280;18191;51.288;12.390;2023-12-20T03:08:42;49235.63;;;-144.47;100.00
31585;BME280;18191;51.288;12.390;2023-12-20T03:13:32;49231.63;;;-144.47;100.00
31585;BME280;18191;51.288;12.390;2023-12-20T03:18:22;49239.59;;;-144.47;100.00
31585;BME280;18191;51.288;12.390;2023-12-20T03:23:12;49219.72;;;-144.47;100.00
31585;BME280;18191;51.288;12.390;2023-12-20T03:28:03;49223.69;;;-144.47;100.00
31585;BME280;18191;51.288;12.390;2023-12-20T03:32:53;49193.84;;;-144.47;100.00
31585;BME280;18191;51.288;12.390;2023-12-20T03:37:44;49247.56;;;-144.47;100.00
31585;BME280;18191;51.288;12.390;2023-12-20T03:42:34;49203.78;;;-144.47;100.00
31585;BME280;18191;51.288;12.390;2023-12-20T03:47:24;49231.63;;;-144.47;100.00
31585;BME280;18191;51.288;12.390;2023-12-20T03:52:14;49221.69;;;-144.47;100.00
31585;BME280;18191;51.288;12.390;2023-12-20T03:57:05;49243.56;;;-144.47;100.00
31585;BME280;18191;51.288;12.390;2023-12-20T04:01:55;49255.50;;;-144.47;100.00
31585;BME280;18191;51.288;12.390;2023-12-20T04:06:45;49199.81;;;-144.47;100.00
31585;BME280;18191;51.288;12.390;2023-12-20T04:11:39;49235.63;;;-144.47;100.00
31585;BME280;18191;51.288;12.390;2023-12-20T04:16:29;49235.63;;;-144.47;100.00
31585;BME280;18191;51.288;12.390;2023-12-20T04:21:19;49235.63;;;-144.47;100.00
31585;BME280;18191;51.288;12.390;2023-12-20T04:26:10;49219.72;;;-144.47;100.00
31585;BME280;18191;51.288;12.390;2023-12-20T04:31:00;49255.50;;;-144.47;100.00
31585;BME280;18191;51.288;12.390;2023-12-20T04:35:51;49187.88;;;-144.47;100.00
31585;BME280;18191;51.288;12.390;2023-12-20T04:40:41;49233.63;;;-144.47;100.00
31585;BME280;18191;51.288;12.390;2023-12-20T04:45:31;49219.72;;;-144.47;100.00
31585;BME280;18191;51.288;12.390;2023-12-20T04:50:22;49243.56;;;-144.47;100.00
31585;BME280;18191;51.288;12.390;2023-12-20T04:55:12;49195.84;;;-144.47;100.00
31585;BME280;18191;51.288;12.390;2023-12-20T05:00:03;49199.81;;;-144.47;100.00
31585;BME280;18191;51.288;12.390;2023-12-20T05:04:53;49203.78;;;-144.47;100.00
31585;BME280;18191;51.288;12.390;2023-12-20T05:09:43;49267.44;;;-144.47;100.00
31585;BME280;18191;51.288;12.390;2023-12-20T05:14:33;49223.69;;;-144.47;100.00
31585;BME280;18191;51.288;12.390;2023-12-20T05:19:24;49231.63;;;-144.47;100.00
31585;BME280;18191;51.288;12.390;2023-12-20T05:24:14;49215.72;;;-144.47;100.00
31585;BME280;18191;51.288;12.390;2023-12-20T05:29:05;49217.72;;;-144.47;100.00
31585;BME280;18191;51.288;12.390;2023-12-20T05:33:55;49227.66;;;-144.47;100.00
31585;BME280;18191;51.288;12.390;2023-12-20T05:38:45;49235.63;;;-144.47;100.00
31585;BME280;18191;51.288;12.390;2023-12-20T05:43:35;49239.59;;;-144.47;100.00
31585;BME280;18191;51.288;12.390;2023-12-20T05:48:26;49231.63;;;-144.47;100.00
31585;BME280;18191;51.288;12.390;2023-12-20T05:53:16;49239.59;;;-144.47;100.00
31585;BME280;18191;51.288;12.390;2023-12-20T05:58:06;49177.94;;;-144.47;100.00
31585;BME280;18191;51.288;12.390;2023-12-20T06:02:57;49203.78;;;-144.47;100.00
31585;BME280;18191;51.288;12.390;2023-12-20T06:07:47;49235.63;;;-144.47;100.00
31585;BME280;18191;51.288;12.390;2023-12-20T06:12:39;49231.63;;;-144.47;100.00
31585;BME280;18191;51.288;12.390;2023-12-20T06:17:30;49243.56;;;-144.47;100.00
31585;BME280;18191;51.288;12.390;2023-12-20T06:22:21;49199.81;;;-144.47;100.00
31585;BME280;18191;51.288;12.390;2023-12-20T06:27:11;49199.81;;;-144.47;100.00
31585;BME280;18191;51.288;12.390;2023-12-20T06:32:02;49247.56;;;-144.47;100.00
31585;BME280;18191;51.288;12.390;2023-12-20T06:36:52;49221.69;;;-144.47;100.00
31585;BME280;18191;51.288;12.390;2023-12-20T06:41:42;49223.69;;;-144.47;100.00
31585;BME280;18191;51.288;12.390;2023-12-20T06:46:33;49239.59;;;-144.47;100.00
31585;BME280;18191;51.288;12.390;2023-12-20T06:51:23;49203.78;;;-144.47;100.00
31585;BME280;18191;51.288;12.390;2023-12-20T06:56:15;49213.75;;;-144.47;100.00
31585;BME280;18191;51.288;12.390;2023-12-20T07:01:11;49243.56;;;-144.47;100.00
31585;BME280;18191;51.288;12.390;2023-12-20T07:06:01;49243.56;;;-144.47;100.00
31585;BME280;18191;51.288;12.390;2023-12-20T07:10:52;49211.75;;;-144.47;100.00
31585;BME280;18191;51.288;12.390;2023-12-20T07:15:43;49211.75;;;-144.47;100.00
31585;BME280;18191;51.288;12.390;2023-12-20T07:20:33;49271.44;;;-144.47;100.00
31585;BME280;18191;51.288;12.390;2023-12-20T07:25:23;49187.88;;;-144.47;99.39
31585;BME280;18191;51.288;12.390;2023-12-20T07:30:14;49227.66;;;-144.47;96.66
31585;BME280;18191;51.288;12.390;2023-12-20T07:35:04;49207.78;;;-144.47;97.09
31585;BME280;18191;51.288;12.390;2023-12-20T07:39:55;49211.75;;;-144.47;97.21
31585;BME280;18191;51.288;12.390;2023-12-20T07:44:45;49231.63;;;-144.47;97.42
31585;BME280;18191;51.288;12.390;2023-12-20T07:49:36;49213.75;;;-144.47;96.41
31585;BME280;18191;51.288;12.390;2023-12-20T07:54:26;49195.84;;;-144.47;97.00
31585;BME280;18191;51.288;12.390;2023-12-20T07:59:16;49197.81;;;-144.47;95.99
31585;BME280;18191;51.288;12.390;2023-12-20T08:04:07;49243.56;;;-144.47;95.30
31585;BME280;18191;51.288;12.390;2023-12-20T08:08:57;49243.56;;;-144.47;94.39
31585;BME280;18191;51.288;12.390;2023-12-20T08:13:47;49187.88;;;-144.47;94.56
31585;BME280;18191;51.288;12.390;2023-12-20T08:18:38;49209.75;;;-144.47;93.93
31585;BME280;18191;51.288;12.390;2023-12-20T08:23:28;49233.63;;;-144.47;93.31
31585;BME280;18191;51.288;12.390;2023-12-20T08:28:18;49219.72;;;-144.47;93.68
31585;BME280;18191;51.288;12.390;2023-12-20T08:33:09;49237.59;;;-144.47;93.15
31585;BME280;18191;51.288;12.390;2023-12-20T08:38:02;49231.63;;;-144.47;93.50
31585;BME280;18191;51.288;12.390;2023-12-20T08:42:54;49211.75;;;-144.47;92.50
31585;BME280;18191;51.288;12.390;2023-12-20T08:47:45;49243.56;;;-144.47;93.19
31585;BME280;18191;51.288;12.390;2023-12-20T08:52:36;49207.78;;;-144.47;92.72
31585;BME280;18191;51.288;12.390;2023-12-20T08:57:26;49207.78;;;-144.47;91.17
31585;BME280;18191;51.288;12.390;2023-12-20T09:02:17;49207.78;;;-144.47;91.26
31585;BME280;18191;51.288;12.390;2023-12-20T09:07:21;49219.72;;;-144.47;90.46
31585;BME280;18191;51.288;12.390;2023-12-20T09:12:11;49199.81;;;-144.47;89.74
31585;BME280;18191;51.288;12.390;2023-12-20T09:17:02;49231.63;;;-144.47;88.53
31585;BME280;18191;51.288;12.390;2023-12-20T09:21:53;49199.81;;;-144.47;86.27
31585;BME280;18191;51.288;12.390;2023-12-20T09:26:43;49215.72;;;-144.47;84.99
31585;BME280;18191;51.288;12.390;2023-12-20T09:31:36;49207.78;;;-144.47;85.62
31585;BME280;18191;51.288;12.390;2023-12-20T09:36:27;49199.81;;;-144.47;85.68
31585;BME280;18191;51.288;12.390;2023-12-20T09:41:17;49160.03;;;-144.47;85.83
31585;BME280;18191;51.288;12.390;2023-12-20T09:46:11;49243.56;;;-144.47;84.16
31585;BME280;18191;51.288;12.390;2023-12-20T09:51:02;49189.88;;;-144.47;82.04
31585;BME280;18191;51.288;12.390;2023-12-20T09:55:52;49215.72;;;-144.47;81.70
31585;BME280;18191;51.288;12.390;2023-12-20T10:00:43;49183.91;;;-144.47;82.48
31585;BME280;18191;51.288;12.390;2023-12-20T10:05:34;49191.84;;;-144.47;82.99
31585;BME280;18191;51.288;12.390;2023-12-20T10:10:25;49211.75;;;-144.47;82.50
31585;BME280;18191;51.288;12.390;2023-12-20T10:15:15;49207.78;;;-144.47;79.88
31585;BME280;18191;51.288;12.390;2023-12-20T10:20:06;49167.97;;;-144.47;78.91
31585;BME280;18191;51.288;12.390;2023-12-20T10:24:59;49213.75;;;-144.47;76.56
31585;BME280;18191;51.288;12.390;2023-12-20T10:29:50;49235.63;;;-144.47;76.92
31585;BME280;18191;51.288;12.390;2023-12-20T10:34:40;49211.75;;;-144.47;76.55
31585;BME280;18191;51.288;12.390;2023-12-20T10:39:31;49231.63;;;-144.47;75.09
31585;BME280;18191;51.288;12.390;2023-12-20T10:44:22;49203.78;;;-144.47;74.29
31585;BME280;18191;51.288;12.390;2023-12-20T10:49:13;49191.84;;;-144.47;75.66
31585;BME280;18191;51.288;12.390;2023-12-20T10:54:05;49183.91;;;-144.47;75.68
31585;BME280;18191;51.288;12.390;2023-12-20T10:58:56;49191.84;;;-144.47;73.41
31585;BME280;18191;51.288;12.390;2023-12-20T11:03:52;49183.91;;;-144.47;71.91
31585;BME280;18191;51.288;12.390;2023-12-20T11:09:12;49171.97;;;-144.47;71.19
31585;BME280;18191;51.288;12.390;2023-12-20T11:14:05;49187.88;;;-144.47;70.89
31585;BME280;18191;51.288;12.390;2023-12-20T11:19:04;49221.69;;;-144.47;71.26
31585;BME280;18191;51.288;12.390;2023-12-20T11:23:55;49179.91;;;-144.47;70.18
31585;BME280;18191;51.288;12.390;2023-12-20T11:28:45;49203.78;;;-144.47;71.21
31585;BME280;18191;51.288;12.390;2023-12-20T11:33:37;49187.88;;;-144.47;72.64
31585;BME280;18191;51.288;12.390;2023-12-20T11:38:32;49199.81;;;-144.47;71.81
31585;BME280;18191;51.288;12.390;2023-12-20T11:43:32;49164.00;;;-144.47;71.61
31585;BME280;18191;51.288;12.390;2023-12-20T11:48:22;49199.81;;;-144.47;71.08
31585;BME280;18191;51.288;12.390;2023-12-20T11:53:13;49164.00;;;-144.47;71.26
31585;BME280;18191;51.288;12.390;2023-12-20T11:58:03;49171.97;;;-144.47;71.76
31585;BME280;18191;51.288;12.390;2023-12-20T12:02:58;49199.81;;;-144.47;73.40
31585;BME280;18191;51.288;12.390;2023-12-20T12:07:49;49191.84;;;-144.47;71.89
31585;BME280;18191;51.288;12.390;2023-12-20T12:12:39;49171.97;;;-144.47;72.50
31585;BME280;18191;51.288;12.390;2023-12-20T12:17:30;49175.94;;;-144.47;73.31
31585;BME280;18191;51.288;12.390;2023-12-20T12:22:20;49183.91;;;-144.47;73.01
31585;BME280;18191;51.288;12.390;2023-12-20T12:27:15;49211.75;;;-144.47;73.29
31585;BME280;18191;51.288;12.390;2023-12-20T12:32:07;49195.84;;;-144.47;72.90
31585;BME280;18191;51.288;12.390;2023-12-20T12:36:57;49187.88;;;-144.47;73.24
31585;BME280;18191;51.288;12.390;2023-12-20T12:41:48;49166.00;;;-144.47;72.65
31585;BME280;18191;51.288;12.390;2023-12-20T12:46:38;49171.97;;;-144.47;73.31
31585;BME280;18191;51.288;12.390;2023-12-20T12:51:29;49185.88;;;-144.47;72.17
31585;BME280;18191;51.288;12.390;2023-12-20T12:56:19;49193.84;;;-144.47;72.96
31585;BME280;18191;51.288;12.390;2023-12-20T13:01:09;49199.81;;;-144.47;72.20
31585;BME280;18191;51.288;12.390;2023-12-20T13:06:00;49160.03;;;-144.47;72.89
31585;BME280;18191;51.288;12.390;2023-12-20T13:10:50;49177.94;;;-144.47;71.85
31585;BME280;18191;51.288;12.390;2023-12-20T13:15:40;49173.94;;;-144.47;70.30
31585;BME280;18191;51.288;12.390;2023-12-20T13:20:31;49156.03;;;-144.47;68.49
31585;BME280;18191;51.288;12.390;2023-12-20T13:25:21;49179.91;;;-144.47;71.36
31585;BME280;18191;51.288;12.390;2023-12-20T13:30:12;49156.03;;;-144.47;72.10
31585;BME280;18191;51.288;12.390;2023-12-20T13:35:02;49175.94;;;-144.47;71.76
31585;BME280;18191;51.288;12.390;2023-12-20T13:39:54;49209.75;;;-144.47;72.85
31585;BME280;18191;51.288;12.390;2023-12-20T13:44:44;49164.00;;;-144.47;73.23
31585;BME280;18191;51.288;12.390;2023-12-20T13:49:35;49144.09;;;-144.47;72.56
31585;BME280;18191;51.288;12.390;2023-12-20T13:54:25;49169.97;;;-144.47;72.30
31585;BME280;18191;51.288;12.390;2023-12-20T13:59:15;49148.09;;;-144.47;73.26
31585;BME280;18191;51.288;12.390;2023-12-20T14:04:06;49235.63;;;-144.47;74.01
31585;BME280;18191;51.288;12.390;2023-12-20T14:08:57;49169.97;;;-144.47;73.21
31585;BME280;18191;51.288;12.390;2023-12-20T14:13:47;49195.84;;;-144.47;73.84
31585;BME280;18191;51.288;12.390;2023-12-20T14:18:38;49193.84;;;-144.47;74.67
31585;BME280;18191;51.288;12.390;2023-12-20T14:23:30;49187.88;;;-144.47;74.11
31585;BME280;18191;51.288;12.390;2023-12-20T14:28:20;49187.88;;;-144.47;75.59
31585;BME280;18191;51.288;12.390;2023-12-20T14:33:10;49183.91;;;-144.47;74.92
31585;BME280;18191;51.288;12.390;2023-12-20T14:38:01;49191.84;;;-144.47;75.70
31585;BME280;18191;51.288;12.390;2023-12-20T14:42:51;49209.75;;;-144.47;76.37
31585;BME280;18191;51.288;12.390;2023-12-20T14:47:41;49203.78;;;-144.47;76.37
31585;BME280;18191;51.288;12.390;2023-12-20T14:52:33;49191.84;;;-144.47;75.97
31585;BME280;18191;51.288;12.390;2023-12-20T14:57:24;49175.94;;;-144.47;76.27
31585;BME280;18191;51.288;12.390;2023-12-20T15:02:14;49167.97;;;-144.47;76.01
31585;BME280;18191;51.288;12.390;2023-12-20T15:07:05;49167.97;;;-144.47;75.60
31585;BME280;18191;51.288;12.390;2023-12-20T15:11:56;49187.88;;;-144.47;75.57
31585;BME280;18191;51.288;12.390;2023-12-20T15:16:46;49191.84;;;-144.47;76.48
31585;BME280;18191;51.288;12.390;2023-12-20T15:21:39;49203.78;;;-144.47;76.30
31585;BME280;18191;51.288;12.390;2023-12-20T15:26:33;49185.88;;;-144.47;76.72
31585;BME280;18191;51.288;12.390;2023-12-20T15:31:23;49167.97;;;-144.47;75.99
31585;BME280;18191;51.288;12.390;2023-12-20T15:36:16;49235.63;;;-144.47;76.59
31585;BME280;18191;51.288;12.390;2023-12-20T15:41:07;49219.72;;;-144.47;77.36
31585;BME280;18191;51.288;12.390;2023-12-20T15:45:58;49179.91;;;-144.47;77.44
31585;BME280;18191;51.288;12.390;2023-12-20T15:50:48;49199.81;;;-144.47;77.94
31585;BME280;18191;51.288;12.390;2023-12-20T15:55:39;49227.66;;;-144.47;77.80
31585;BME280;18191;51.288;12.390;2023-12-20T16:00:29;49211.75;;;-144.47;77.51
31585;BME280;18191;51.288;12.390;2023-12-20T16:05:21;49235.63;;;-144.47;78.46
31585;BME280;18191;51.288;12.390;2023-12-20T16:10:12;49179.91;;;-144.47;77.61
31585;BME280;18191;51.288;12.390;2023-12-20T16:15:03;49189.88;;;-144.47;78.08
31585;BME280;18191;51.288;12.390;2023-12-20T16:19:54;49156.03;;;-144.47;77.89
31585;BME280;18191;51.288;12.390;2023-12-20T16:24:44;49211.75;;;-144.47;78.34
31585;BME280;18191;51.288;12.390;2023-12-20T16:29:34;49199.81;;;-144.47;78.69
31585;BME280;18191;51.288;12.390;2023-12-20T16:34:24;49148.09;;;-144.47;79.73
31585;BME280;18191;51.288;12.390;2023-12-20T16:39:15;49203.78;;;-144.47;80.62
31585;BME280;18191;51.288;12.390;2023-12-20T16:44:06;49171.97;;;-144.47;80.46
31585;BME280;18191;51.288;12.390;2023-12-20T16:48:56;49179.91;;;-144.47;80.15
31585;BME280;18191;51.288;12.390;2023-12-20T16:53:46;49171.97;;;-144.47;78.87
31585;BME280;18191;51.288;12.390;2023-12-20T16:58:36;49217.72;;;-144.47;79.60
31585;BME280;18191;51.288;12.390;2023-12-20T17:03:27;49197.81;;;-144.47;79.78
31585;BME280;18191;51.288;12.390;2023-12-20T17:08:17;49207.78;;;-144.47;79.99
31585;BME280;18191;51.288;12.390;2023-12-20T17:13:08;49205.78;;;-144.47;81.42
31585;BME280;18191;51.288;12.390;2023-12-20T17:17:58;49203.78;;;-144.47;82.76
31585;BME280;18191;51.288;12.390;2023-12-20T17:22:48;49191.84;;;-144.47;82.93
31585;BME280;18191;51.288;12.390;2023-12-20T17:27:39;49199.81;;;-144.47;82.71
31585;BME280;18191;51.288;12.390;2023-12-20T17:32:29;49187.88;;;-144.47;83.65
31585;BME280;18191;51.288;12.390;2023-12-20T17:37:19;49195.84;;;-144.47;86.85
31585;BME280;18191;51.288;12.390;2023-12-20T17:42:09;49215.72;;;-144.47;90.50
31585;BME280;18191;51.288;12.390;2023-12-20T17:47:00;49211.75;;;-144.47;91.99
31585;BME280;18191;51.288;12.390;2023-12-20T17:51:50;49211.75;;;-144.47;93.62
31585;BME280;18191;51.288;12.390;2023-12-20T17:56:40;49219.72;;;-144.47;95.24
31585;BME280;18191;51.288;12.390;2023-12-20T18:01:31;49211.75;;;-144.47;95.45
31585;BME280;18191;51.288;12.390;2023-12-20T18:06:22;49199.81;;;-144.47;96.02
31585;BME280;18191;51.288;12.390;2023-12-20T18:11:14;49203.78;;;-144.47;95.38
31585;BME280;18191;51.288;12.390;2023-12-20T18:16:05;49187.88;;;-144.47;95.32
31585;BME280;18191;51.288;12.390;2023-12-20T18:20:59;49197.81;;;-144.47;96.02
31585;BME280;18191;51.288;12.390;2023-12-20T18:25:50;49221.69;;;-144.47;95.37
31585;BME280;18191;51.288;12.390;2023-12-20T18:30:43;49207.78;;;-144.47;93.98
31585;BME280;18191;51.288;12.390;2023-12-20T18:35:33;49251.53;;;-144.47;94.29
31585;BME280;18191;51.288;12.390;2023-12-20T18:40:26;49239.59;;;-144.47;93.97
31585;BME280;18191;51.288;12.390;2023-12-20T18:45:17;49167.97;;;-144.47;93.36
31585;BME280;18191;51.288;12.390;2023-12-20T18:50:07;49199.81;;;-144.47;94.54
31585;BME280;18191;51.288;12.390;2023-12-20T18:54:58;49173.94;;;-144.47;94.26
31585;BME280;18191;51.288;12.390;2023-12-20T18:59:48;49207.78;;;-144.47;92.90
31585;BME280;18191;51.288;12.390;2023-12-20T19:04:39;49187.88;;;-144.47;92.02
31585;BME280;18191;51.288;12.390;2023-12-20T19:09:29;49191.84;;;-144.47;90.16
31585;BME280;18191;51.288;12.390;2023-12-20T19:14:20;49203.78;;;-144.47;89.13
31585;BME280;18191;51.288;12.390;2023-12-20T19:19:11;49199.81;;;-144.47;90.64
31585;BME280;18191;51.288;12.390;2023-12-20T19:24:02;49211.75;;;-144.47;89.12
31585;BME280;18191;51.288;12.390;2023-12-20T19:28:52;49243.56;;;-144.47;88.77
31585;BME280;18191;51.288;12.390;2023-12-20T19:33:42;49195.84;;;-144.47;88.46
31585;BME280;18191;51.288;12.390;2023-12-20T19:38:35;49223.69;;;-144.47;87.92
31585;BME280;18191;51.288;12.390;2023-12-20T19:43:26;49239.59;;;-144.47;88.82
31585;BME280;18191;51.288;12.390;2023-12-20T19:48:16;49239.59;;;-144.47;89.03
31585;BME280;18191;51.288;12.390;2023-12-20T19:53:07;49217.72;;;-144.47;89.02
31585;BME280;18191;51.288;12.390;2023-12-20T19:57:58;49211.75;;;-144.47;88.96
31585;BME280;18191;51.288;12.390;2023-12-20T20:02:49;49211.75;;;-144.47;87.36
31585;BME280;18191;51.288;12.390;2023-12-20T20:07:39;49144.09;;;-144.47;87.45
31585;BME280;18191;51.288;12.390;2023-12-20T20:12:30;49187.88;;;-144.47;86.39
31585;BME280;18191;51.288;12.390;2023-12-20T20:17:20;49199.81;;;-144.47;86.70
31585;BME280;18191;51.288;12.390;2023-12-20T20:22:10;49171.97;;;-144.47;86.98
31585;BME280;18191;51.288;12.390;2023-12-20T20:27:02;49215.72;;;-144.47;86.06
31585;BME280;18191;51.288;12.390;2023-12-20T20:31:53;49160.03;;;-144.47;85.19
31585;BME280;18191;51.288;12.390;2023-12-20T20:36:43;49211.75;;;-144.47;85.70
31585;BME280;18191;51.288;12.390;2023-12-20T20:41:33;49219.72;;;-144.47;86.07
31585;BME280;18191;51.288;12.390;2023-12-20T20:46:24;49187.88;;;-144.47;84.46
31585;BME280;18191;51.288;12.390;2023-12-20T20:51:16;49164.00;;;-144.47;84.79
31585;BME280;18191;51.288;12.390;2023-12-20T20:56:07;49211.75;;;-144.47;85.16
31585;BME280;18191;51.288;12.390;2023-12-20T21:00:57;49148.09;;;-144.47;84.63
31585;BME280;18191;51.288;12.390;2023-12-20T21:05:48;49191.84;;;-144.47;83.83
31585;BME280;18191;51.288;12.390;2023-12-20T21:10:38;49207.78;;;-144.47;84.17
31585;BME280;18191;51.288;12.390;2023-12-20T21:15:30;49223.69;;;-144.47;83.56
31585;BME280;18191;51.288;12.390;2023-12-20T21:20:21;49225.66;;;-144.47;84.05
31585;BME280;18191;51.288;12.390;2023-12-20T21:25:11;49164.00;;;-144.47;83.75
31585;BME280;18191;51.288;12.390;2023-12-20T21:30:02;49227.66;;;-144.47;83.49
31585;BME280;18191;51.288;12.390;2023-12-20T21:34:52;49189.88;;;-144.47;84.16
31585;BME280;18191;51.288;12.390;2023-12-20T21:39:43;49183.91;;;-144.47;82.86
31585;BME280;18191;51.288;12.390;2023-12-20T21:44:34;49215.72;;;-144.47;82.75
31585;BME280;18191;51.288;12.390;2023-12-20T21:49:24;49169.97;;;-144.47;82.65
31585;BME280;18191;51.288;12.390;2023-12-20T21:54:14;49148.09;;;-144.47;82.30
31585;BME280;18191;51.288;12.390;2023-12-20T21:59:05;49179.91;;;-144.47;83.60
31585;BME280;18191;51.288;12.390;2023-12-20T22:03:55;49191.84;;;-144.47;84.30
31585;BME280;18191;51.288;12.390;2023-12-20T22:08:45;49191.84;;;-144.47;83.20
31585;BME280;18191;51.288;12.390;2023-12-20T22:13:36;49201.81;;;-144.47;83.18
31585;BME280;18191;51.288;12.390;2023-12-20T22:18:26;49195.84;;;-144.47;83.09
31585;BME280;18191;51.288;12.390;2023-12-20T22:23:16;49211.75;;;-144.47;83.07
31585;BME280;18191;51.288;12.390;2023-12-20T22:28:07;49199.81;;;-144.47;82.18
31585;BME280;18191;51.288;12.390;2023-12-20T22:32:57;49191.84;;;-144.47;82.58
31585;BME280;18191;51.288;12.390;2023-12-20T22:37:47;49199.81;;;-144.47;82.23
31585;BME280;18191;51.288;12.390;2023-12-20T22:42:37;49211.75;;;-144.47;82.65
31585;BME280;18191;51.288;12.390;2023-12-20T22:47:28;49203.78;;;-144.47;81.94
31585;BME280;18191;51.288;12.390;2023-12-20T22:52:19;49207.78;;;-144.47;82.05
31585;BME280;18191;51.288;12.390;2023-12-20T22:57:09;49197.81;;;-144.47;81.65
31585;BME280;18191;51.288;12.390;2023-12-20T23:02:00;49164.00;;;-144.47;82.36
31585;BME280;18191;51.288;12.390;2023-12-20T23:06:50;49183.91;;;-144.47;81.20
31585;BME280;18191;51.288;12.390;2023-12-20T23:11:40;49154.06;;;-144.47;80.95
31585;BME280;18191;51.288;12.390;2023-12-20T23:16:30;49213.75;;;-144.47;81.93
31585;BME280;18191;51.288;12.390;2023-12-20T23:21:21;49199.81;;;-144.47;82.38
31585;BME280;18191;51.288;12.390;2023-12-20T23:26:11;49223.69;;;-144.47;81.49
31585;BME280;18191;51.288;12.390;2023-12-20T23:31:01;49160.03;;;-144.47;81.09
31585;BME280;18191;51.288;12.390;2023-12-20T23:35:51;49219.72;;;-144.47;81.13
31585;BME280;18191;51.288;12.390;2023-12-20T23:40:42;49191.84;;;-144.47;81.60
31585;BME280;18191;51.288;12.390;2023-12-20T23:45:32;49191.84;;;-144.47;81.29
31585;BME280;18191;51.288;12.390;2023-12-20T23:50:23;49158.03;;;-144.47;81.42
31585;BME280;18191;51.288;12.390;2023-12-20T23:55:13;49199.81;;;-144.47;81.60
